Time;durP1;ratioP1;P1;durP2;ratioP2;P2;SDS_P1;SDS_P2;PMS_P1;PMS_P2;Temp;Humidity;BMP_temperature;BMP_pressure;BME280_temperature;BME280_humidity;BME280_pressure;Samples;Min_cycle;Max_cycle;Signal;HPM_P1;HPM_P2
2021/12/17 00:00:31;;;;;;;20.92;11.65;;;;;;;;;;5019341;28;20045;-61
2021/12/17 00:05:45;;;;;;;23.10;11.27;;;;;;;;;;5014754;28;20033;-61
2021/12/17 00:08:12;;;;;;;20.42;11.55;;;;;;;;;;5017201;28;20029;-61
2021/12/17 00:10:38;;;;;;;21.05;10.88;;;;;;;;;;5016269;28;20025;-61
2021/12/17 00:13:04;;;;;;;23.27;11.93;;;;;;;;;;5017369;28;20600;-61
2021/12/17 00:15:30;;;;;;;24.05;11.30;;;;;;;;;;5020742;28;20048;-61
2021/12/17 00:18:02;;;;;;;24.55;10.30;;;;;;;;;;5018066;28;20033;-61
2021/12/17 00:53:05;;;;;;;16.00;7.25;;;;;;;;;;5018151;28;20047;-61
2021/12/17 00:55:31;;;;;;;13.95;6.95;;;;;;;;;;5015261;28;20473;-61
2021/12/17 00:57:57;;;;;;;15.23;6.75;;;;;;;;;;5019869;28;20056;-60
2021/12/17 01:00:23;;;;;;;15.13;7.70;;;;;;;;;;5013078;28;20045;-61
2021/12/17 01:02:50;;;;;;;17.33;8.40;;;;;;;;;;5015261;28;20439;-61
2021/12/17 01:05:20;;;;;;;19.67;7.57;;;;;;;;;;5017660;28;20515;-61
2021/12/17 01:07:48;;;;;;;17.10;6.97;;;;;;;;;;5016674;28;20086;-61
2021/12/17 01:10:21;;;;;;;20.40;7.88;;;;;;;;;;5013163;28;20091;-60
2021/12/17 01:12:47;;;;;;;21.33;7.30;;;;;;;;;;5017295;28;20029;-61
2021/12/17 01:15:16;;;;;;;21.27;7.57;;;;;;;;;;5014306;28;20386;-60
2021/12/17 01:17:44;;;;;;;14.23;6.07;;;;;;;;;;5014501;28;20080;-60
2021/12/17 01:20:25;;;;;;;17.35;7.07;;;;;;;;;;5017550;28;20047;-62
2021/12/17 01:23:07;;;;;;;19.88;8.00;;;;;;;;;;5011561;28;20095;-61
2021/12/17 01:25:43;;;;;;;13.50;6.68;;;;;;;;;;5018110;28;20026;-61
2021/12/17 01:36:26;;;;;;;17.98;7.05;;;;;;;;;;5013730;28;20452;-61
2021/12/17 01:44:09;;;;;;;14.50;6.95;;;;;;;;;;5013989;28;20125;-62
2021/12/17 01:46:37;;;;;;;13.38;6.93;;;;;;;;;;5015103;28;20049;-61
2021/12/17 02:00:00;;;;;;;19.75;7.78;;;;;;;;;;5012086;28;20643;-61
2021/12/17 02:02:27;;;;;;;18.73;7.47;;;;;;;;;;5015772;28;20510;-61
2021/12/17 02:04:53;;;;;;;20.77;7.68;;;;;;;;;;5013739;28;20454;-61
2021/12/17 02:07:18;;;;;;;13.98;7.05;;;;;;;;;;5007837;28;20037;-62
2021/12/17 02:12:43;;;;;;;23.20;8.75;;;;;;;;;;5015428;28;20037;-61
2021/12/17 02:32:04;;;;;;;27.27;8.50;;;;;;;;;;5006548;28;20052;-60
2021/12/17 02:34:58;;;;;;;20.38;8.90;;;;;;;;;;5009758;28;20029;-61
2021/12/17 02:37:25;;;;;;;22.27;8.70;;;;;;;;;;5013231;28;20113;-60
2021/12/17 02:47:41;;;;;;;18.92;7.43;;;;;;;;;;5016136;28;20556;-61
2021/12/17 02:50:09;;;;;;;21.67;8.90;;;;;;;;;;5014044;28;20029;-61
2021/12/17 02:52:37;;;;;;;24.83;9.48;;;;;;;;;;5013690;28;20504;-61
2021/12/17 02:55:05;;;;;;;20.58;8.25;;;;;;;;;;5017120;28;20386;-61
2021/12/17 02:57:31;;;;;;;21.60;9.45;;;;;;;;;;5015069;28;20120;-61
2021/12/17 02:59:59;;;;;;;19.80;9.10;;;;;;;;;;5019465;28;20124;-61
2021/12/17 03:02:27;;;;;;;19.65;8.43;;;;;;;;;;5022946;28;20041;-61
2021/12/17 03:04:54;;;;;;;20.80;9.02;;;;;;;;;;5022035;28;20026;-61
2021/12/17 03:07:19;;;;;;;17.73;8.10;;;;;;;;;;5019933;28;20025;-61
2021/12/17 03:12:19;;;;;;;20.13;8.98;;;;;;;;;;5017892;28;20119;-61
2021/12/17 03:14:54;;;;;;;19.80;8.80;;;;;;;;;;5017035;28;20026;-60
2021/12/17 03:17:39;;;;;;;17.55;8.48;;;;;;;;;;5015256;28;20506;-61
2021/12/17 03:25:33;;;;;;;20.27;7.68;;;;;;;;;;5011358;28;20100;-60
2021/12/17 03:27:58;;;;;;;15.93;7.93;;;;;;;;;;5013944;28;20038;-60
2021/12/17 03:30:24;;;;;;;18.23;9.10;;;;;;;;;;5019127;28;20064;-60
2021/12/17 03:32:49;;;;;;;21.80;9.10;;;;;;;;;;5020064;28;20088;-61
2021/12/17 03:35:15;;;;;;;20.30;8.60;;;;;;;;;;5013052;28;20045;-61
2021/12/17 03:37:40;;;;;;;23.27;9.02;;;;;;;;;;5016104;28;20061;-60
2021/12/17 03:40:06;;;;;;;20.73;9.60;;;;;;;;;;5019339;28;20076;-61
2021/12/17 03:42:32;;;;;;;21.90;8.75;;;;;;;;;;5012262;28;20114;-61
2021/12/17 03:44:57;;;;;;;17.58;8.82;;;;;;;;;;5017731;28;20124;-61
2021/12/17 03:47:23;;;;;;;17.23;8.30;;;;;;;;;;5013074;28;20041;-60
2021/12/17 03:49:49;;;;;;;17.65;8.30;;;;;;;;;;5018267;28;20107;-60
2021/12/17 03:52:16;;;;;;;17.95;8.57;;;;;;;;;;5015787;28;20045;-60
2021/12/17 03:54:42;;;;;;;15.23;7.65;;;;;;;;;;5018315;28;20083;-60
2021/12/17 03:57:11;;;;;;;19.05;8.70;;;;;;;;;;5016292;28;20079;-60
2021/12/17 03:59:37;;;;;;;18.42;7.60;;;;;;;;;;5017623;28;20123;-61
2021/12/17 04:02:03;;;;;;;17.27;7.28;;;;;;;;;;5013286;28;20141;-61
2021/12/17 04:04:29;;;;;;;17.30;8.18;;;;;;;;;;5018491;28;20470;-60
2021/12/17 04:06:54;;;;;;;13.77;7.63;;;;;;;;;;5018736;28;20482;-60
2021/12/17 04:09:22;;;;;;;17.88;8.60;;;;;;;;;;5014346;28;20086;-60
2021/12/17 04:11:48;;;;;;;13.73;7.07;;;;;;;;;;5011715;28;20037;-61
2021/12/17 04:14:14;;;;;;;17.67;9.35;;;;;;;;;;5018145;28;20038;-60
2021/12/17 04:16:40;;;;;;;18.50;7.15;;;;;;;;;;5013764;28;20029;-61
2021/12/17 04:19:05;;;;;;;23.38;8.55;;;;;;;;;;5020091;28;20412;-61
2021/12/17 04:21:31;;;;;;;19.50;8.52;;;;;;;;;;5013187;28;20057;-60
2021/12/17 04:23:56;;;;;;;20.48;9.15;;;;;;;;;;5014227;28;20496;-60
2021/12/17 04:26:26;;;;;;;15.88;8.55;;;;;;;;;;5014662;28;20548;-61
2021/12/17 04:28:53;;;;;;;21.73;8.73;;;;;;;;;;5014374;28;20049;-61
2021/12/17 04:31:24;;;;;;;17.10;9.10;;;;;;;;;;5017177;28;20030;-60
2021/12/17 04:33:49;;;;;;;23.05;9.35;;;;;;;;;;5016135;28;20037;-62
2021/12/17 04:36:21;;;;;;;25.02;9.68;;;;;;;;;;5018567;28;20029;-61
2021/12/17 04:38:47;;;;;;;22.73;9.82;;;;;;;;;;5011867;28;20069;-61
2021/12/17 04:44:09;;;;;;;25.60;10.07;;;;;;;;;;5017133;28;20038;-61
2021/12/17 04:57:36;;;;;;;21.77;11.43;;;;;;;;;;5013208;28;20032;-61
2021/12/17 05:00:11;;;;;;;19.52;9.90;;;;;;;;;;5012345;28;20053;-60
2021/12/17 05:02:45;;;;;;;28.55;11.38;;;;;;;;;;5012736;28;20036;-61
2021/12/17 05:05:12;;;;;;;22.15;10.02;;;;;;;;;;5013918;28;20107;-61
2021/12/17 05:07:44;;;;;;;23.63;11.23;;;;;;;;;;5013670;28;20037;-61
2021/12/17 05:18:28;;;;;;;33.55;12.23;;;;;;;;;;5008347;28;20436;-61
2021/12/17 05:21:00;;;;;;;25.98;11.77;;;;;;;;;;5014991;28;20038;-61
2021/12/17 05:23:30;;;;;;;24.73;12.27;;;;;;;;;;5011884;28;20318;-61
2021/12/17 05:25:58;;;;;;;28.58;11.95;;;;;;;;;;5002568;28;20053;-60
2021/12/17 05:28:24;;;;;;;26.65;11.00;;;;;;;;;;5016283;28;20528;-60
2021/12/17 05:30:50;;;;;;;29.98;11.93;;;;;;;;;;5013530;28;20037;-60
2021/12/17 05:33:18;;;;;;;31.35;12.32;;;;;;;;;;5013527;28;20492;-61
2021/12/17 05:35:44;;;;;;;34.92;13.13;;;;;;;;;;5011170;28;20037;-60
2021/12/17 05:38:11;;;;;;;28.05;12.65;;;;;;;;;;5011004;28;20030;-60
2021/12/17 05:40:38;;;;;;;33.53;13.68;;;;;;;;;;5032383;28;20369;-60
2021/12/17 05:43:06;;;;;;;32.22;12.50;;;;;;;;;;5013328;28;20037;-60
2021/12/17 05:45:47;;;;;;;26.35;12.55;;;;;;;;;;5012343;28;20334;-60
2021/12/17 05:48:14;;;;;;;22.85;12.02;;;;;;;;;;5011619;28;20417;-60
2021/12/17 05:50:43;;;;;;;30.08;13.02;;;;;;;;;;5010290;28;20040;-60
2021/12/17 05:53:09;;;;;;;31.35;12.30;;;;;;;;;;5016153;28;20615;-61
2021/12/17 05:55:35;;;;;;;28.83;12.93;;;;;;;;;;5010946;28;20041;-61
2021/12/17 05:58:02;;;;;;;32.88;12.95;;;;;;;;;;5011975;28;20045;-62
2021/12/17 06:00:31;;;;;;;26.13;12.65;;;;;;;;;;5013852;28;20468;-61
2021/12/17 06:02:58;;;;;;;29.55;12.38;;;;;;;;;;5012398;28;20029;-62
2021/12/17 06:05:25;;;;;;;26.42;12.48;;;;;;;;;;5014804;28;20091;-62
2021/12/17 06:07:50;;;;;;;27.20;12.88;;;;;;;;;;5013102;28;20120;-59
2021/12/17 06:10:16;;;;;;;27.98;12.15;;;;;;;;;;5014215;28;20097;-61
2021/12/17 06:12:42;;;;;;;28.65;13.43;;;;;;;;;;5014409;28;20041;-60
2021/12/17 06:15:10;;;;;;;30.23;12.13;;;;;;;;;;5011046;28;20030;-60
2021/12/17 06:17:36;;;;;;;32.22;12.35;;;;;;;;;;5015411;28;20112;-60
2021/12/17 06:20:03;;;;;;;30.40;12.98;;;;;;;;;;5023214;28;20037;-60
2021/12/17 06:22:28;;;;;;;30.85;12.65;;;;;;;;;;5019264;28;20680;-60
2021/12/17 06:24:54;;;;;;;30.00;13.98;;;;;;;;;;5014544;28;20056;-60
2021/12/17 06:27:20;;;;;;;34.13;14.45;;;;;;;;;;5017062;28;20034;-60
2021/12/17 06:29:46;;;;;;;28.75;13.45;;;;;;;;;;5023542;28;20029;-60
2021/12/17 06:32:12;;;;;;;34.17;13.98;;;;;;;;;;5016424;28;20409;-60
2021/12/17 06:34:39;;;;;;;28.88;14.18;;;;;;;;;;5016707;28;20382;-60
2021/12/17 06:37:05;;;;;;;38.80;14.05;;;;;;;;;;5016300;28;20300;-61
2021/12/17 06:39:32;;;;;;;34.90;15.25;;;;;;;;;;5018958;28;20230;-60
2021/12/17 06:41:58;;;;;;;38.15;16.33;;;;;;;;;;5018414;28;20029;-60
2021/12/17 06:44:26;;;;;;;38.30;15.27;;;;;;;;;;5018684;28;20038;-60
2021/12/17 06:55:03;;;;;;;38.20;16.75;;;;;;;;;;5014736;28;20041;-61
2021/12/17 07:11:12;;;;;;;46.00;19.05;;;;;;;;;;5020542;28;20214;-60
2021/12/17 07:21:56;;;;;;;55.33;21.00;;;;;;;;;;5014081;28;20134;-60
2021/12/17 07:24:50;;;;;;;49.65;21.15;;;;;;;;;;5023719;28;20452;-60
2021/12/17 07:32:49;;;;;;;63.17;22.02;;;;;;;;;;5018575;28;20048;-60
2021/12/17 07:40:33;;;;;;;58.15;23.10;;;;;;;;;;5014391;28;20547;-61
2021/12/17 07:43:01;;;;;;;61.75;23.35;;;;;;;;;;5014115;28;20320;-61
2021/12/17 07:45:27;;;;;;;63.53;24.52;;;;;;;;;;5029998;28;20048;-61
2021/12/17 07:47:53;;;;;;;74.18;24.13;;;;;;;;;;5016765;28;20030;-62
2021/12/17 07:50:18;;;;;;;58.85;21.20;;;;;;;;;;5010493;28;20037;-60
2021/12/17 07:52:44;;;;;;;65.57;24.63;;;;;;;;;;5017704;28;20052;-62
2021/12/17 07:55:09;;;;;;;66.22;24.98;;;;;;;;;;5025550;28;20472;-61
2021/12/17 07:57:35;;;;;;;59.38;23.20;;;;;;;;;;5013047;28;20040;-61
2021/12/17 08:00:00;;;;;;;67.75;24.58;;;;;;;;;;5013118;28;20046;-60
2021/12/17 08:02:26;;;;;;;60.55;26.15;;;;;;;;;;5017023;28;20044;-60
2021/12/17 08:04:51;;;;;;;63.80;24.77;;;;;;;;;;5015917;28;20523;-61
2021/12/17 08:07:17;;;;;;;63.20;24.65;;;;;;;;;;5013839;28;20081;-61
2021/12/17 08:09:43;;;;;;;65.90;24.15;;;;;;;;;;5015538;28;20022;-60
2021/12/17 08:12:10;;;;;;;64.60;24.58;;;;;;;;;;5014421;28;20042;-60
2021/12/17 08:14:35;;;;;;;63.92;26.27;;;;;;;;;;5021566;28;20068;-60
2021/12/17 08:17:29;;;;;;;67.47;24.25;;;;;;;;;;5016239;28;20061;-60
2021/12/17 08:25:17;;;;;;;70.82;26.00;;;;;;;;;;5014674;28;20662;-61
2021/12/17 08:28:04;;;;;;;64.63;26.73;;;;;;;;;;5016601;28;20033;-60
2021/12/17 08:30:38;;;;;;;57.53;24.65;;;;;;;;;;5013338;28;20831;-60
2021/12/17 08:33:05;;;;;;;66.72;26.20;;;;;;;;;;5016238;28;20036;-60
2021/12/17 08:35:31;;;;;;;57.00;25.00;;;;;;;;;;5015148;28;20558;-59
2021/12/17 08:37:57;;;;;;;63.42;25.15;;;;;;;;;;5014752;28;20029;-60
2021/12/17 08:40:26;;;;;;;58.42;24.58;;;;;;;;;;5017555;28;20038;-60
2021/12/17 08:42:53;;;;;;;61.78;24.00;;;;;;;;;;5018374;28;20037;-61
2021/12/17 08:45:19;;;;;;;58.28;25.90;;;;;;;;;;5013141;28;20029;-59
2021/12/17 08:47:45;;;;;;;61.75;23.60;;;;;;;;;;5014176;28;20037;-60
2021/12/17 08:50:12;;;;;;;57.17;25.23;;;;;;;;;;5014533;28;20318;-60
2021/12/17 08:52:37;;;;;;;69.85;25.73;;;;;;;;;;5013964;28;20045;-60
2021/12/17 08:55:05;;;;;;;51.42;21.23;;;;;;;;;;5007764;28;20029;-63
2021/12/17 08:57:31;;;;;;;65.38;25.02;;;;;;;;;;5007989;28;20040;-60
2021/12/17 08:59:57;;;;;;;49.60;22.23;;;;;;;;;;5009465;28;20416;-60
2021/12/17 09:02:24;;;;;;;59.70;23.90;;;;;;;;;;5014128;28;20034;-60
2021/12/17 09:04:50;;;;;;;53.80;24.10;;;;;;;;;;5008123;28;20033;-60
2021/12/17 09:07:16;;;;;;;51.33;22.80;;;;;;;;;;5010849;28;20408;-61
2021/12/17 09:09:44;;;;;;;51.90;21.65;;;;;;;;;;5017701;28;20499;-61
2021/12/17 09:12:10;;;;;;;56.10;22.58;;;;;;;;;;5014093;28;20029;-61
2021/12/17 09:14:36;;;;;;;60.65;23.05;;;;;;;;;;5014858;28;20048;-61
2021/12/17 09:17:01;;;;;;;57.20;24.25;;;;;;;;;;5015568;28;20044;-61
2021/12/17 09:19:27;;;;;;;55.50;24.00;;;;;;;;;;5012863;28;20026;-61
2021/12/17 09:21:53;;;;;;;60.00;24.05;;;;;;;;;;5009208;28;20056;-62
2021/12/17 09:24:18;;;;;;;55.00;22.75;;;;;;;;;;5014329;28;20036;-60
2021/12/17 09:26:44;;;;;;;65.82;25.65;;;;;;;;;;5011057;28;20033;-60
2021/12/17 09:29:09;;;;;;;62.10;23.77;;;;;;;;;;5015209;28;20052;-60
2021/12/17 09:31:36;;;;;;;57.47;22.25;;;;;;;;;;5008768;28;20044;-60
2021/12/17 09:34:02;;;;;;;55.17;22.52;;;;;;;;;;5014750;28;20025;-61
2021/12/17 09:36:28;;;;;;;45.58;21.95;;;;;;;;;;5010785;28;20079;-60
2021/12/17 09:38:54;;;;;;;50.17;20.42;;;;;;;;;;5011072;28;20042;-60
2021/12/17 09:41:21;;;;;;;47.72;20.73;;;;;;;;;;5010846;28;20110;-61
2021/12/17 09:43:47;;;;;;;48.72;22.05;;;;;;;;;;5015430;28;20033;-61
2021/12/17 09:46:16;;;;;;;38.40;17.67;;;;;;;;;;5012673;28;20091;-61
2021/12/17 09:48:45;;;;;;;47.45;19.08;;;;;;;;;;5014689;28;20426;-61
2021/12/17 09:51:11;;;;;;;53.83;19.73;;;;;;;;;;5011836;28;20069;-61
2021/12/17 09:53:37;;;;;;;45.42;19.25;;;;;;;;;;5020854;28;20556;-61
2021/12/17 09:56:04;;;;;;;54.72;21.48;;;;;;;;;;5013161;28;20040;-61
2021/12/17 09:58:30;;;;;;;50.13;18.95;;;;;;;;;;5015302;28;20028;-61
2021/12/17 10:00:56;;;;;;;45.15;19.15;;;;;;;;;;5020254;28;20050;-61
2021/12/17 10:03:21;;;;;;;45.22;18.92;;;;;;;;;;5013341;28;20050;-61
2021/12/17 10:05:47;;;;;;;41.88;18.77;;;;;;;;;;5017583;28;20068;-61
2021/12/17 10:08:19;;;;;;;44.85;20.20;;;;;;;;;;5015790;28;20034;-61
2021/12/17 10:10:46;;;;;;;45.83;19.45;;;;;;;;;;5019039;28;20033;-60
2021/12/17 10:13:18;;;;;;;40.22;17.83;;;;;;;;;;5016714;28;20033;-61
2021/12/17 10:15:46;;;;;;;33.05;17.15;;;;;;;;;;5017620;28;20026;-60
2021/12/17 10:18:13;;;;;;;38.92;17.92;;;;;;;;;;5017395;28;20468;-61
2021/12/17 10:20:55;;;;;;;38.33;17.98;;;;;;;;;;5023028;28;20034;-61
2021/12/17 10:23:22;;;;;;;39.53;16.92;;;;;;;;;;5011917;28;20126;-61
2021/12/17 10:25:48;;;;;;;34.13;16.15;;;;;;;;;;5022738;28;20052;-61
2021/12/17 10:28:14;;;;;;;43.83;17.23;;;;;;;;;;5022258;28;20668;-61
2021/12/17 10:30:44;;;;;;;41.45;17.38;;;;;;;;;;5012302;28;20675;-61
2021/12/17 10:33:12;;;;;;;40.78;15.38;;;;;;;;;;5014451;28;20029;-61
2021/12/17 10:35:43;;;;;;;34.22;17.30;;;;;;;;;;5017064;28;20022;-60
2021/12/17 10:38:12;;;;;;;33.85;16.35;;;;;;;;;;5011251;28;20036;-61
2021/12/17 10:40:48;;;;;;;30.30;14.13;;;;;;;;;;5015874;28;20037;-61
2021/12/17 10:43:27;;;;;;;34.63;15.07;;;;;;;;;;5016037;28;20505;-61
2021/12/17 10:46:01;;;;;;;30.55;14.23;;;;;;;;;;5021522;28;20074;-61
2021/12/17 10:48:36;;;;;;;31.92;13.65;;;;;;;;;;5009038;28;20030;-61
2021/12/17 10:51:10;;;;;;;30.38;13.95;;;;;;;;;;5022094;28;20021;-61
2021/12/17 10:53:36;;;;;;;30.92;13.93;;;;;;;;;;5017085;28;20400;-61
2021/12/17 10:56:01;;;;;;;33.60;14.43;;;;;;;;;;5018523;28;20041;-61
2021/12/17 10:58:27;;;;;;;48.30;15.15;;;;;;;;;;5017056;28;20045;-61
2021/12/17 11:01:01;;;;;;;31.45;13.85;;;;;;;;;;5015286;28;20393;-61
2021/12/17 11:03:28;;;;;;;35.05;12.73;;;;;;;;;;5017092;28;20560;-61
2021/12/17 11:05:54;;;;;;;33.72;12.63;;;;;;;;;;5017215;28;20060;-61
2021/12/17 11:08:31;;;;;;;29.70;12.80;;;;;;;;;;5009817;28;20113;-61
2021/12/17 11:11:10;;;;;;;29.92;12.02;;;;;;;;;;5026623;28;20119;-61
2021/12/17 11:13:51;;;;;;;23.30;10.57;;;;;;;;;;5016332;28;20335;-61
2021/12/17 11:16:17;;;;;;;26.08;11.32;;;;;;;;;;5012318;28;20425;-60
2021/12/17 11:18:43;;;;;;;30.75;12.68;;;;;;;;;;5016975;28;20042;-60
2021/12/17 11:21:08;;;;;;;28.33;11.23;;;;;;;;;;5019143;28;20414;-61
2021/12/17 11:23:35;;;;;;;26.05;10.82;;;;;;;;;;5013792;28;20266;-60
2021/12/17 11:26:00;;;;;;;24.05;10.63;;;;;;;;;;5017450;28;20044;-59
2021/12/17 11:28:26;;;;;;;31.55;10.45;;;;;;;;;;5016237;28;20045;-60
2021/12/17 11:30:52;;;;;;;24.30;9.98;;;;;;;;;;5016410;28;20026;-60
2021/12/17 11:33:18;;;;;;;30.58;11.05;;;;;;;;;;5011690;28;20040;-60
2021/12/17 11:35:46;;;;;;;25.42;10.63;;;;;;;;;;5015466;28;20040;-60
2021/12/17 11:38:41;;;;;;;21.30;9.93;;;;;;;;;;5014177;28;20021;-60
2021/12/17 11:41:30;;;;;;;26.80;10.27;;;;;;;;;;5007784;28;20133;-61
2021/12/17 11:44:01;;;;;;;24.83;10.68;;;;;;;;;;5011480;28;20035;-60
2021/12/17 11:46:31;;;;;;;24.05;9.32;;;;;;;;;;5016350;28;20540;-60
2021/12/17 11:49:07;;;;;;;25.02;9.60;;;;;;;;;;5029289;28;20034;-61
2021/12/17 11:51:34;;;;;;;30.40;11.13;;;;;;;;;;5014471;28;20476;-62
2021/12/17 11:54:03;;;;;;;20.92;9.30;;;;;;;;;;5021741;28;20106;-61
2021/12/17 11:56:45;;;;;;;25.02;10.27;;;;;;;;;;5016248;28;20079;-62
2021/12/17 11:59:32;;;;;;;29.20;9.00;;;;;;;;;;5017624;28;20037;-61
2021/12/17 12:02:03;;;;;;;25.30;8.93;;;;;;;;;;5012353;28;20057;-61
2021/12/17 12:04:34;;;;;;;21.13;9.80;;;;;;;;;;5010530;28;20488;-61
2021/12/17 12:07:17;;;;;;;24.00;8.50;;;;;;;;;;5017724;28;20124;-61
2021/12/17 12:09:57;;;;;;;24.52;8.65;;;;;;;;;;5014615;28;20173;-61
2021/12/17 12:12:33;;;;;;;23.25;9.13;;;;;;;;;;5012069;28;20092;-61
2021/12/17 12:15:17;;;;;;;21.75;9.52;;;;;;;;;;5010022;28;20061;-61
2021/12/17 12:17:58;;;;;;;20.63;9.13;;;;;;;;;;5011485;28;20026;-61
2021/12/17 12:20:49;;;;;;;22.17;9.48;;;;;;;;;;5019498;28;20082;-61
2021/12/17 12:23:21;;;;;;;25.70;10.05;;;;;;;;;;5012607;28;20095;-61
2021/12/17 12:26:02;;;;;;;20.40;9.17;;;;;;;;;;5013813;28;20276;-61
2021/12/17 12:28:46;;;;;;;23.67;9.70;;;;;;;;;;5008209;28;20447;-61
2021/12/17 12:31:13;;;;;;;23.88;9.77;;;;;;;;;;5019881;28;20661;-60
2021/12/17 12:34:16;;;;;;;22.63;9.57;;;;;;;;;;5011046;28;20107;-60
2021/12/17 12:36:41;;;;;;;;;;;;;;;;;;4976273;28;20138;-60
2021/12/17 12:39:14;;;;;;;23.38;8.38;;;;;;;;;;5003501;28;20400;-60
2021/12/17 12:41:56;;;;;;;24.33;8.95;;;;;;;;;;5008933;28;20033;-60
2021/12/17 12:44:39;;;;;;;23.05;10.07;;;;;;;;;;5013084;28;20032;-61
2021/12/17 12:47:06;;;;;;;22.90;10.15;;;;;;;;;;5012844;28;20040;-60
2021/12/17 12:49:49;;;;;;;30.17;10.18;;;;;;;;;;5014896;28;20029;-60
2021/12/17 12:52:26;;;;;;;19.38;8.63;;;;;;;;;;5019140;28;20026;-60
2021/12/17 12:55:06;;;;;;;22.92;8.95;;;;;;;;;;5013171;28;20106;-60
2021/12/17 12:57:34;;;;;;;23.52;9.82;;;;;;;;;;5010302;28;20022;-60
2021/12/17 13:00:09;;;;;;;20.92;8.73;;;;;;;;;;5012975;28;20492;-60
2021/12/17 13:02:38;;;;;;;21.50;8.30;;;;;;;;;;5013053;28;20053;-60
2021/12/17 13:05:06;;;;;;;18.75;8.63;;;;;;;;;;5014334;28;20128;-61
2021/12/17 13:07:43;;;;;;;26.67;9.10;;;;;;;;;;5013400;28;20099;-61
2021/12/17 13:10:23;;;;;;;18.75;9.15;;;;;;;;;;5007451;28;20086;-61
2021/12/17 13:13:00;;;;;;;20.20;9.55;;;;;;;;;;5008877;28;20033;-61
2021/12/17 13:24:06;;;;;;;23.13;8.73;;;;;;;;;;5014338;28;20451;-61
2021/12/17 13:26:31;;;;;;;22.85;9.07;;;;;;;;;;5013711;28;20021;-61
2021/12/17 13:29:05;;;;;;;18.83;8.65;;;;;;;;;;5013061;28;20037;-62
2021/12/17 13:31:40;;;;;;;18.70;8.98;;;;;;;;;;5014085;28;20115;-61
2021/12/17 13:34:13;;;;;;;28.30;9.77;;;;;;;;;;5010305;28;20048;-61
2021/12/17 13:37:13;;;;;;;21.63;8.85;;;;;;;;;;5014226;28;20030;-61
2021/12/17 13:39:57;;;;;;;22.70;9.63;;;;;;;;;;5011722;28;20121;-61
2021/12/17 13:42:28;;;;;;;17.33;8.68;;;;;;;;;;5015471;28;20029;-62
2021/12/17 13:44:56;;;;;;;16.92;8.90;;;;;;;;;;5012486;28;20021;-62
2021/12/17 13:47:30;;;;;;;18.52;9.30;;;;;;;;;;5008938;28;21082;-61
2021/12/17 13:50:10;;;;;;;20.35;9.23;;;;;;;;;;5013721;28;20408;-62
2021/12/17 13:53:14;;;;;;;19.85;9.02;;;;;;;;;;5014607;28;20504;-60
2021/12/17 13:55:46;;;;;;;23.85;9.52;;;;;;;;;;5017341;28;20071;-61
2021/12/17 13:58:18;;;;;;;20.23;9.38;;;;;;;;;;5013830;28;20113;-60
2021/12/17 14:00:46;;;;;;;20.45;9.45;;;;;;;;;;5011548;28;20088;-61
2021/12/17 14:03:14;;;;;;;21.02;8.63;;;;;;;;;;5014717;28;20041;-62
2021/12/17 14:05:46;;;;;;;25.40;8.50;;;;;;;;;;5007537;28;20172;-62
2021/12/17 14:08:15;;;;;;;25.08;8.63;;;;;;;;;;5005378;28;20056;-61
2021/12/17 14:10:41;;;;;;;20.65;9.20;;;;;;;;;;5013445;28;20034;-61
2021/12/17 14:13:26;;;;;;;23.80;10.50;;;;;;;;;;5006762;28;20088;-61
2021/12/17 14:15:54;;;;;;;28.80;11.23;;;;;;;;;;5011617;28;20049;-61
2021/12/17 14:18:26;;;;;;;31.70;11.93;;;;;;;;;;4999995;28;20445;-61
2021/12/17 14:20:55;;;;;;;25.92;10.23;;;;;;;;;;5014620;28;20025;-61
2021/12/17 14:23:23;;;;;;;24.23;9.50;;;;;;;;;;5009496;28;20042;-61
2021/12/17 14:25:57;;;;;;;30.95;11.45;;;;;;;;;;5010135;28;20032;-61
2021/12/17 14:28:30;;;;;;;25.42;10.13;;;;;;;;;;5009886;28;20034;-61
2021/12/17 14:31:09;;;;;;;20.88;10.85;;;;;;;;;;5011595;28;20091;-61
2021/12/17 14:33:46;;;;;;;20.48;9.13;;;;;;;;;;5025657;28;20826;-60
2021/12/17 14:36:12;;;;;;;22.17;9.38;;;;;;;;;;5008334;28;20049;-61
2021/12/17 14:38:47;;;;;;;21.15;9.10;;;;;;;;;;5011771;28;20034;-61
2021/12/17 14:41:20;;;;;;;19.55;8.35;;;;;;;;;;5015335;28;20040;-61
2021/12/17 14:44:08;;;;;;;26.67;10.45;;;;;;;;;;5014795;28;20048;-61
2021/12/17 15:05:18;;;;;;;25.15;10.60;;;;;;;;;;5016376;28;20030;-61
2021/12/17 15:07:43;;;;;;;25.33;10.55;;;;;;;;;;5015008;28;20245;-61
2021/12/17 15:10:11;;;;;;;25.15;10.75;;;;;;;;;;5017137;28;20475;-60
2021/12/17 15:12:38;;;;;;;22.38;10.65;;;;;;;;;;5015047;28;20492;-61
2021/12/17 15:15:25;;;;;;;25.30;10.07;;;;;;;;;;5016515;28;20407;-61
2021/12/17 15:17:53;;;;;;;22.95;9.80;;;;;;;;;;5012481;28;20029;-61
2021/12/17 15:20:25;;;;;;;23.05;10.93;;;;;;;;;;5015543;28;20065;-61
2021/12/17 15:22:52;;;;;;;26.92;11.18;;;;;;;;;;5013008;28;20083;-61
2021/12/17 15:25:19;;;;;;;20.85;10.07;;;;;;;;;;5016741;28;20033;-60
2021/12/17 15:27:45;;;;;;;22.90;11.05;;;;;;;;;;5016982;28;20859;-60
2021/12/17 15:30:15;;;;;;;27.17;10.93;;;;;;;;;;5018243;28;20022;-61
2021/12/17 15:32:41;;;;;;;27.23;11.13;;;;;;;;;;5013303;28;20412;-60
2021/12/17 15:35:08;;;;;;;21.95;9.38;;;;;;;;;;5014481;28;20568;-60
2021/12/17 15:37:33;;;;;;;22.30;9.65;;;;;;;;;;5011966;28;20148;-61
2021/12/17 15:39:59;;;;;;;25.45;10.38;;;;;;;;;;5010735;28;20053;-61
2021/12/17 15:42:26;;;;;;;26.08;11.55;;;;;;;;;;5024346;28;20472;-61
2021/12/17 15:44:51;;;;;;;25.25;10.38;;;;;;;;;;5012728;28;20049;-62
2021/12/17 15:47:17;;;;;;;22.83;10.48;;;;;;;;;;5008842;28;20619;-61
2021/12/17 15:49:42;;;;;;;23.23;10.23;;;;;;;;;;5008349;28;20463;-62
2021/12/17 15:52:08;;;;;;;24.05;10.57;;;;;;;;;;5010935;28;20055;-60
2021/12/17 15:54:37;;;;;;;28.30;11.50;;;;;;;;;;5015036;28;20381;-60
2021/12/17 15:57:05;;;;;;;28.80;10.52;;;;;;;;;;5019478;28;20029;-60
2021/12/17 15:59:31;;;;;;;29.58;12.25;;;;;;;;;;5018511;28;20041;-61
2021/12/17 16:01:57;;;;;;;29.58;11.77;;;;;;;;;;5016860;28;20049;-61
2021/12/17 16:04:23;;;;;;;23.27;10.02;;;;;;;;;;5015901;28;20037;-60
2021/12/17 16:06:49;;;;;;;23.27;12.10;;;;;;;;;;5019807;28;20030;-60
2021/12/17 16:22:22;;;;;;;32.38;12.98;;;;;;;;;;5016188;28;20072;-60
2021/12/17 16:24:48;;;;;;;30.90;13.45;;;;;;;;;;5017077;28;20417;-59
2021/12/17 16:27:14;;;;;;;46.58;20.35;;;;;;;;;;5013432;28;20037;-61
2021/12/17 16:29:39;;;;;;;37.45;16.30;;;;;;;;;;5017850;28;20091;-61
2021/12/17 16:32:05;;;;;;;37.63;16.42;;;;;;;;;;5012487;28;20037;-61
2021/12/17 16:34:31;;;;;;;34.92;15.63;;;;;;;;;;5013952;28;20132;-61
2021/12/17 16:36:56;;;;;;;53.63;21.40;;;;;;;;;;5013971;28;20460;-61
2021/12/17 16:39:22;;;;;;;26.40;12.95;;;;;;;;;;5014424;28;20049;-60
2021/12/17 16:41:48;;;;;;;26.75;12.23;;;;;;;;;;5019303;28;20032;-60
2021/12/17 16:44:18;;;;;;;28.98;12.10;;;;;;;;;;5013078;28;20475;-61
2021/12/17 16:49:20;;;;;;;27.48;11.90;;;;;;;;;;5013295;28;20049;-61
2021/12/17 16:51:48;;;;;;;40.58;17.08;;;;;;;;;;5016599;28;20603;-61
2021/12/17 16:54:14;;;;;;;31.17;13.93;;;;;;;;;;5014090;28;20030;-61
2021/12/17 16:56:40;;;;;;;24.60;11.50;;;;;;;;;;5012271;28;20039;-60
2021/12/17 16:59:06;;;;;;;30.85;13.45;;;;;;;;;;5012643;28;20030;-61
2021/12/17 17:01:35;;;;;;;24.88;11.95;;;;;;;;;;5017912;28;20040;-60
2021/12/17 17:04:01;;;;;;;24.27;11.20;;;;;;;;;;5015006;28;20033;-60
2021/12/17 17:06:27;;;;;;;25.35;11.48;;;;;;;;;;5013211;28;20053;-62
2021/12/17 17:08:59;;;;;;;25.05;11.50;;;;;;;;;;5017848;28;20065;-61
2021/12/17 17:11:29;;;;;;;26.88;12.95;;;;;;;;;;5013508;28;20463;-60
2021/12/17 17:13:55;;;;;;;33.05;12.55;;;;;;;;;;5013462;28;20060;-60
2021/12/17 17:16:20;;;;;;;25.67;11.40;;;;;;;;;;5014059;28;20029;-60
2021/12/17 17:18:46;;;;;;;28.30;12.23;;;;;;;;;;5019548;28;20029;-60
2021/12/17 17:21:11;;;;;;;30.80;13.18;;;;;;;;;;5015836;28;20079;-60
2021/12/17 17:23:38;;;;;;;32.35;12.07;;;;;;;;;;5002834;28;20029;-59
2021/12/17 17:26:07;;;;;;;26.65;10.82;;;;;;;;;;5017568;28;20454;-60
2021/12/17 17:28:35;;;;;;;35.35;14.60;;;;;;;;;;5020363;28;20027;-60
2021/12/17 17:31:00;;;;;;;28.33;13.20;;;;;;;;;;5015920;28;20029;-60
2021/12/17 17:33:26;;;;;;;33.83;13.43;;;;;;;;;;5012188;28;20547;-60
2021/12/17 17:35:52;;;;;;;31.73;14.10;;;;;;;;;;5012508;28;20025;-60
2021/12/17 17:38:18;;;;;;;28.38;14.00;;;;;;;;;;5013078;28;20546;-60
2021/12/17 17:40:44;;;;;;;26.65;12.48;;;;;;;;;;5018044;28;20029;-60
2021/12/17 17:43:12;;;;;;;29.98;12.55;;;;;;;;;;5015388;28;20080;-61
2021/12/17 17:45:40;;;;;;;33.33;13.15;;;;;;;;;;5014452;28;20056;-61
2021/12/17 17:48:11;;;;;;;32.83;14.20;;;;;;;;;;5017245;28;20156;-61
2021/12/17 17:50:37;;;;;;;31.98;14.60;;;;;;;;;;5015978;28;20014;-61
2021/12/17 17:53:05;;;;;;;30.73;14.10;;;;;;;;;;5017053;28;20140;-61
2021/12/17 17:55:31;;;;;;;38.80;14.77;;;;;;;;;;5013754;28;20039;-61
2021/12/17 17:57:57;;;;;;;35.08;12.80;;;;;;;;;;5013215;28;20038;-60
2021/12/17 18:00:24;;;;;;;30.85;13.18;;;;;;;;;;5016417;28;20075;-63